Time;durP1;ratioP1;P1;durP2;ratioP2;P2;SDS_P1;SDS_P2;PMS_P1;PMS_P2;Temp;Humidity;BMP_temperature;BMP_pressure;BME280_temperature;BME280_humidity;BME280_pressure;Samples;Min_cycle;Max_cycle;Signal;HPM_P1;HPM_P2
2023/09/26 00:00:21;;;;;;;0.82;0.82;;;;;;;;;;1021693;29;20040;-72
2023/09/26 00:00:52;;;;;;;0.60;0.60;;;;;;;;;;1019644;29;20027;-72
2023/09/26 00:01:28;;;;;;;0.88;0.88;;;;;;;;;;1021160;29;20028;-72
2023/09/26 00:02:00;;;;;;;1.85;1.23;;;;;;;;;;1020640;29;20489;-72
2023/09/26 00:02:30;;;;;;;1.35;0.73;;;;;;;;;;1021741;28;20032;-72
2023/09/26 00:03:01;;;;;;;6.03;3.38;;;;;;;;;;1018457;29;20019;-72
2023/09/26 00:03:31;;;;;;;1.55;1.45;;;;;;;;;;1019952;29;20043;-72
2023/09/26 00:04:02;;;;;;;2.00;1.17;;;;;;;;;;1015912;29;20018;-72
2023/09/26 00:04:33;;;;;;;1.20;0.45;;;;;;;;;;1015448;29;20028;-72
2023/09/26 00:05:03;;;;;;;0.15;0.15;;;;;;;;;;1019769;29;20043;-72
2023/09/26 00:05:34;;;;;;;3.92;2.83;;;;;;;;;;1019958;29;20031;-72
2023/09/26 00:06:17;;;;;;;0.10;0.10;;;;;;;;;;1018560;29;20485;-72
2023/09/26 00:06:47;;;;;;;1.38;1.27;;;;;;;;;;1018377;29;20361;-72
2023/09/26 00:07:18;;;;;;;0.50;0.32;;;;;;;;;;1017805;29;20034;-72
2023/09/26 00:07:49;;;;;;;2.38;1.50;;;;;;;;;;1018086;29;20449;-72
2023/09/26 00:08:19;;;;;;;2.03;1.80;;;;;;;;;;1019788;29;20118;-72
2023/09/26 00:08:52;;;;;;;1.20;0.77;;;;;;;;;;1019979;29;20031;-72
2023/09/26 00:09:23;;;;;;;0.73;0.73;;;;;;;;;;1019757;29;20421;-72
2023/09/26 00:09:53;;;;;;;1.45;1.35;;;;;;;;;;1019393;29;20114;-72
2023/09/26 00:10:24;;;;;;;1.85;1.30;;;;;;;;;;1017887;29;20508;-72
2023/09/26 00:10:54;;;;;;;2.13;1.55;;;;;;;;;;1017924;29;20429;-72
2023/09/26 00:11:25;;;;;;;0.20;0.20;;;;;;;;;;1018234;29;20119;-72
2023/09/26 00:11:55;;;;;;;1.83;1.27;;;;;;;;;;1018584;29;20070;-72
2023/09/26 00:12:25;;;;;;;0.47;0.47;;;;;;;;;;1018392;29;20020;-72
2023/09/26 00:12:56;;;;;;;0.63;0.40;;;;;;;;;;1018342;29;20114;-72
2023/09/26 00:13:26;;;;;;;10.35;0.70;;;;;;;;;;1018114;29;20081;-73
2023/09/26 00:13:57;;;;;;;0.17;0.17;;;;;;;;;;1017250;29;20526;-72
2023/09/26 00:14:27;;;;;;;1.85;0.55;;;;;;;;;;1018368;29;20028;-72
2023/09/26 00:14:58;;;;;;;1.75;1.10;;;;;;;;;;1017747;29;20464;-72
2023/09/26 00:15:28;;;;;;;5.53;2.08;;;;;;;;;;1018139;29;20450;-72
2023/09/26 00:15:59;;;;;;;0.60;0.60;;;;;;;;;;1018094;29;20396;-72
2023/09/26 00:16:29;;;;;;;0.75;0.73;;;;;;;;;;1018100;29;20038;-72
2023/09/26 00:17:00;;;;;;;0.32;0.32;;;;;;;;;;1019232;29;20012;-72
2023/09/26 00:17:30;;;;;;;2.25;1.70;;;;;;;;;;1019828;29;20063;-72
2023/09/26 00:18:02;;;;;;;1.85;1.27;;;;;;;;;;1020007;29;20526;-72
2023/09/26 00:18:32;;;;;;;1.10;1.10;;;;;;;;;;1019717;29;20032;-72
2023/09/26 00:19:03;;;;;;;0.63;0.63;;;;;;;;;;1018322;29;20020;-72
2023/09/26 00:19:33;;;;;;;3.53;1.75;;;;;;;;;;1018140;29;20448;-72
2023/09/26 00:20:10;;;;;;;1.65;1.55;;;;;;;;;;1018050;29;20171;-72
2023/09/26 00:20:40;;;;;;;1.75;0.57;;;;;;;;;;1017615;29;20028;-73
2023/09/26 00:21:11;;;;;;;0.70;0.70;;;;;;;;;;1017493;29;20028;-73
2023/09/26 00:21:41;;;;;;;0.57;0.57;;;;;;;;;;1017814;29;20689;-73
2023/09/26 00:22:12;;;;;;;1.85;1.73;;;;;;;;;;1017296;29;20114;-73
2023/09/26 00:22:42;;;;;;;0.43;0.40;;;;;;;;;;1021273;29;20404;-73
2023/09/26 00:23:13;;;;;;;0.82;0.65;;;;;;;;;;1021985;29;20476;-72
2023/09/26 00:23:43;;;;;;;0.52;0.52;;;;;;;;;;1022120;29;20035;-72
2023/09/26 00:24:14;;;;;;;0.17;0.17;;;;;;;;;;1017978;29;20047;-72
2023/09/26 00:24:44;;;;;;;8.98;1.33;;;;;;;;;;1017990;29;20027;-72
2023/09/26 00:25:15;;;;;;;2.40;1.65;;;;;;;;;;1017722;29;20122;-72
2023/09/26 00:25:45;;;;;;;0.32;0.32;;;;;;;;;;1017824;29;20055;-72
2023/09/26 00:26:16;;;;;;;0.75;0.75;;;;;;;;;;1018215;29;20102;-72
2023/09/26 00:26:46;;;;;;;0.90;0.90;;;;;;;;;;1018932;29;20032;-72
2023/09/26 00:27:17;;;;;;;1.67;1.20;;;;;;;;;;1017858;29;20529;-72
2023/09/26 00:27:48;;;;;;;0.45;0.45;;;;;;;;;;1018067;29;20406;-72
2023/09/26 00:28:19;;;;;;;1.55;1.05;;;;;;;;;;1017908;29;20024;-72
2023/09/26 00:28:49;;;;;;;2.67;1.98;;;;;;;;;;1017983;29;20030;-73
2023/09/26 00:29:19;;;;;;;2.55;1.17;;;;;;;;;;1018253;29;20024;-73
2023/09/26 00:29:50;;;;;;;0.75;0.75;;;;;;;;;;1018518;29;20028;-72
2023/09/26 00:30:21;;;;;;;2.08;1.35;;;;;;;;;;1018315;29;20020;-72
2023/09/26 00:30:52;;;;;;;0.57;0.57;;;;;;;;;;1018363;29;20023;-72
2023/09/26 00:31:22;;;;;;;2.95;0.75;;;;;;;;;;1017928;29;20062;-73
2023/09/26 00:31:53;;;;;;;0.70;0.65;;;;;;;;;;1021572;29;20020;-73
2023/09/26 00:32:23;;;;;;;4.03;1.23;;;;;;;;;;1021815;28;20036;-72
2023/09/26 00:32:54;;;;;;;2.70;2.50;;;;;;;;;;1023279;29;20024;-72
2023/09/26 00:33:24;;;;;;;2.40;2.05;;;;;;;;;;1023789;29;20503;-72
2023/09/26 00:33:55;;;;;;;1.17;0.95;;;;;;;;;;1023598;29;20480;-73
2023/09/26 00:34:25;;;;;;;0.55;0.55;;;;;;;;;;1023478;29;20499;-73
2023/09/26 00:34:56;;;;;;;0.20;0.20;;;;;;;;;;1021413;29;20079;-73
2023/09/26 00:35:26;;;;;;;3.38;0.50;;;;;;;;;;1018375;29;20020;-72
2023/09/26 00:36:00;;;;;;;1.45;1.25;;;;;;;;;;1018419;29;20032;-73
2023/09/26 00:36:30;;;;;;;1.33;1.23;;;;;;;;;;1018323;29;20386;-73
2023/09/26 00:37:01;;;;;;;0.32;0.32;;;;;;;;;;1021888;29;20024;-73
2023/09/26 00:37:31;;;;;;;0.75;0.75;;;;;;;;;;1020741;28;20027;-73
2023/09/26 00:38:02;;;;;;;1.00;0.32;;;;;;;;;;1019614;29;20022;-73
2023/09/26 00:38:32;;;;;;;0.20;0.20;;;;;;;;;;1019796;29;20596;-73
2023/09/26 00:39:02;;;;;;;2.58;2.20;;;;;;;;;;1019506;29;20020;-72
2023/09/26 00:39:34;;;;;;;2.90;1.38;;;;;;;;;;1019743;29;20027;-72
2023/09/26 00:40:07;;;;;;;0.28;0.28;;;;;;;;;;1018372;29;20471;-73
2023/09/26 00:40:39;;;;;;;1.55;1.45;;;;;;;;;;1022040;29;20034;-72
2023/09/26 00:41:10;;;;;;;3.10;2.30;;;;;;;;;;1021997;29;20122;-72
2023/09/26 00:41:40;;;;;;;0.50;0.50;;;;;;;;;;1019694;29;20031;-72
2023/09/26 00:42:11;;;;;;;1.27;0.98;;;;;;;;;;1019695;29;20058;-72
2023/09/26 00:42:42;;;;;;;3.50;1.85;;;;;;;;;;1019827;29;20517;-72
2023/09/26 00:43:22;;;;;;;1.45;1.40;;;;;;;;;;1018883;29;20024;-72
2023/09/26 00:43:52;;;;;;;0.20;0.20;;;;;;;;;;1017857;29;20031;-73
2023/09/26 00:44:23;;;;;;;0.47;0.47;;;;;;;;;;1017840;29;20071;-72
2023/09/26 00:44:55;;;;;;;0.85;0.80;;;;;;;;;;1018226;29;20032;-72
2023/09/26 00:45:26;;;;;;;0.40;0.40;;;;;;;;;;1018505;29;20020;-72
2023/09/26 00:45:57;;;;;;;2.30;1.05;;;;;;;;;;1018217;29;20019;-72
2023/09/26 00:46:27;;;;;;;0.40;0.40;;;;;;;;;;1016848;29;20106;-72
2023/09/26 00:46:59;;;;;;;13.95;1.80;;;;;;;;;;1014751;29;20020;-72
2023/09/26 00:47:35;;;;;;;1.25;1.15;;;;;;;;;;1014052;29;20035;-72
2023/09/26 00:48:05;;;;;;;1.10;1.10;;;;;;;;;;1015127;29;20123;-72
2023/09/26 00:48:38;;;;;;;2.08;1.40;;;;;;;;;;1017655;29;20505;-72
2023/09/26 00:49:10;;;;;;;0.80;0.80;;;;;;;;;;1021534;29;20122;-73
2023/09/26 00:49:40;;;;;;;2.70;1.60;;;;;;;;;;1022718;29;20011;-74
2023/09/26 00:50:14;;;;;;;0.80;0.80;;;;;;;;;;1021508;29;20032;-74
2023/09/26 00:50:45;;;;;;;1.13;1.02;;;;;;;;;;1019542;29;20023;-74
2023/09/26 00:51:15;;;;;;;0.30;0.30;;;;;;;;;;1019521;29;20023;-74
2023/09/26 00:51:47;;;;;;;1.38;1.27;;;;;;;;;;1019677;29;20030;-72
2023/09/26 00:52:17;;;;;;;0.70;0.70;;;;;;;;;;1017845;29;20016;-72
2023/09/26 00:52:49;;;;;;;0.65;0.65;;;;;;;;;;1021931;29;20027;-72
2023/09/26 00:53:23;;;;;;;1.10;1.08;;;;;;;;;;1021804;29;20019;-74
2023/09/26 00:53:55;;;;;;;0.55;0.55;;;;;;;;;;1022016;29;20599;-74
2023/09/26 00:54:26;;;;;;;4.28;2.47;;;;;;;;;;1021682;29;20019;-75
2023/09/26 00:54:57;;;;;;;1.20;1.10;;;;;;;;;;1021197;29;20032;-75
2023/09/26 00:55:28;;;;;;;0.90;0.55;;;;;;;;;;1018011;29;20051;-72
2023/09/26 00:55:59;;;;;;;1.15;1.15;;;;;;;;;;1018435;29;20024;-72
2023/09/26 00:56:29;;;;;;;2.75;1.50;;;;;;;;;;1021038;29;20035;-72
2023/09/26 00:57:00;;;;;;;0.75;0.75;;;;;;;;;;1021815;29;20027;-72
2023/09/26 00:57:32;;;;;;;8.55;4.43;;;;;;;;;;1021703;28;20019;-72
2023/09/26 00:58:02;;;;;;;15.23;7.22;;;;;;;;;;1021480;29;20015;-72
2023/09/26 00:58:33;;;;;;;0.30;0.30;;;;;;;;;;1021847;29;20028;-72
2023/09/26 00:59:04;;;;;;;20.45;4.32;;;;;;;;;;1021415;29;20027;-72
2023/09/26 00:59:34;;;;;;;6.18;3.35;;;;;;;;;;1016826;29;20028;-74
2023/09/26 01:00:06;;;;;;;12.70;2.80;;;;;;;;;;1018289;29;20024;-72
2023/09/26 01:00:38;;;;;;;3.13;2.08;;;;;;;;;;1018226;29;20054;-72
2023/09/26 01:01:09;;;;;;;1.95;1.80;;;;;;;;;;1017675;29;20038;-72
2023/09/26 01:01:40;;;;;;;6.32;2.58;;;;;;;;;;1016844;29;20027;-72
2023/09/26 01:02:11;;;;;;;20.60;5.57;;;;;;;;;;1022381;28;20080;-72
2023/09/26 01:02:41;;;;;;;11.55;3.08;;;;;;;;;;1021383;29;20808;-73
2023/09/26 01:03:12;;;;;;;14.60;4.53;;;;;;;;;;1016005;29;21053;-72
2023/09/26 01:03:44;;;;;;;18.40;4.70;;;;;;;;;;1017446;29;20138;-72
2023/09/26 01:04:15;;;;;;;13.50;6.18;;;;;;;;;;1017776;29;20037;-72
2023/09/26 01:04:45;;;;;;;11.27;4.80;;;;;;;;;;1017113;29;20035;-72
2023/09/26 01:05:16;;;;;;;7.13;3.45;;;;;;;;;;1018300;29;20034;-72
2023/09/26 01:05:46;;;;;;;7.00;4.03;;;;;;;;;;1017537;29;20032;-72
2023/09/26 01:06:17;;;;;;;4.15;2.08;;;;;;;;;;1016972;29;20800;-72
2023/09/26 01:06:48;;;;;;;7.93;3.55;;;;;;;;;;1018548;29;20043;-73
2023/09/26 01:07:18;;;;;;;4.70;2.45;;;;;;;;;;1017151;29;20507;-73
2023/09/26 01:07:49;;;;;;;2.25;1.98;;;;;;;;;;1017359;29;20484;-72
2023/09/26 01:08:21;;;;;;;8.80;4.00;;;;;;;;;;1018178;29;20035;-72
2023/09/26 01:08:51;;;;;;;24.70;6.88;;;;;;;;;;1017582;29;20028;-72
2023/09/26 01:09:23;;;;;;;26.02;9.93;;;;;;;;;;1017264;29;20024;-72
2023/09/26 01:09:53;;;;;;;33.67;8.63;;;;;;;;;;1017598;29;20477;-72
2023/09/26 01:10:24;;;;;;;26.83;10.05;;;;;;;;;;1017445;29;20028;-72
2023/09/26 01:10:54;;;;;;;19.02;10.57;;;;;;;;;;1017918;29;20035;-72
2023/09/26 01:11:25;;;;;;;15.52;6.13;;;;;;;;;;1018291;29;20503;-72
2023/09/26 01:11:56;;;;;;;15.32;6.60;;;;;;;;;;1017467;29;20476;-73
2023/09/26 01:12:29;;;;;;;15.65;6.15;;;;;;;;;;1016858;29;20019;-72
2023/09/26 01:13:00;;;;;;;4.55;4.10;;;;;;;;;;1017257;29;20090;-72
2023/09/26 01:13:31;;;;;;;16.33;6.30;;;;;;;;;;1018005;29;20470;-72
2023/09/26 01:14:01;;;;;;;18.08;5.85;;;;;;;;;;1017896;29;20036;-72
2023/09/26 01:14:32;;;;;;;5.88;3.67;;;;;;;;;;1015328;29;20034;-73
2023/09/26 01:15:03;;;;;;;17.85;4.75;;;;;;;;;;1016913;29;20032;-73
2023/09/26 01:15:38;;;;;;;11.80;5.70;;;;;;;;;;1016358;29;20083;-72
2023/09/26 01:16:16;;;;;;;4.03;2.17;;;;;;;;;;1016302;29;20118;-72
2023/09/26 01:16:46;;;;;;;14.63;2.47;;;;;;;;;;1016282;29;20047;-73
2023/09/26 01:17:16;;;;;;;0.40;0.40;;;;;;;;;;1015994;29;20020;-72
2023/09/26 01:17:47;;;;;;;11.07;4.07;;;;;;;;;;1017757;29;20091;-73
2023/09/26 01:18:23;;;;;;;1.33;1.23;;;;;;;;;;1018105;29;20138;-73
2023/09/26 01:18:53;;;;;;;4.35;2.40;;;;;;;;;;1017151;29;20501;-73
2023/09/26 01:19:24;;;;;;;4.90;2.10;;;;;;;;;;1014987;29;20030;-72
2023/09/26 01:19:54;;;;;;;5.05;0.93;;;;;;;;;;1017916;29;20032;-72
2023/09/26 01:20:25;;;;;;;2.05;1.02;;;;;;;;;;1016363;29;20083;-72
2023/09/26 01:20:55;;;;;;;3.85;1.33;;;;;;;;;;1017461;29;20044;-72
2023/09/26 01:21:26;;;;;;;10.02;3.05;;;;;;;;;;1018243;29;20067;-72
2023/09/26 01:21:57;;;;;;;5.35;1.63;;;;;;;;;;1018089;29;20043;-72
2023/09/26 01:22:30;;;;;;;4.18;2.92;;;;;;;;;;1017006;29;20042;-72
2023/09/26 01:23:05;;;;;;;8.55;3.95;;;;;;;;;;1018538;29;20467;-73
2023/09/26 01:23:36;;;;;;;10.48;3.10;;;;;;;;;;1017443;29;20393;-73
2023/09/26 01:24:06;;;;;;;5.28;3.40;;;;;;;;;;1016526;29;20016;-73
2023/09/26 01:24:37;;;;;;;6.07;4.40;;;;;;;;;;1019077;29;20102;-73
2023/09/26 01:25:08;;;;;;;13.35;5.47;;;;;;;;;;1022225;29;20455;-73
2023/09/26 01:25:40;;;;;;;22.13;6.88;;;;;;;;;;1020874;29;20482;-73
2023/09/26 01:26:10;;;;;;;3.17;2.08;;;;;;;;;;1021022;29;20478;-73
2023/09/26 01:26:41;;;;;;;19.17;2.58;;;;;;;;;;1021198;28;20027;-73
2023/09/26 01:27:11;;;;;;;6.90;3.25;;;;;;;;;;1022691;29;20078;-73
2023/09/26 01:27:42;;;;;;;6.18;1.65;;;;;;;;;;1023080;29;20037;-73
2023/09/26 01:28:16;;;;;;;1.38;1.27;;;;;;;;;;1023310;29;20027;-73
2023/09/26 01:28:46;;;;;;;7.57;1.95;;;;;;;;;;1021598;29;20117;-74
2023/09/26 01:29:16;;;;;;;6.95;1.73;;;;;;;;;;1022573;29;20019;-74
2023/09/26 01:29:47;;;;;;;9.85;4.35;;;;;;;;;;1021742;29;20037;-74
2023/09/26 01:30:18;;;;;;;12.43;5.32;;;;;;;;;;1022202;29;20158;-74
2023/09/26 01:30:48;;;;;;;8.88;3.40;;;;;;;;;;1021602;29;20031;-74
2023/09/26 01:31:19;;;;;;;3.60;2.05;;;;;;;;;;1020659;28;20071;-74
2023/09/26 01:31:50;;;;;;;1.50;0.55;;;;;;;;;;1020122;28;20571;-74
2023/09/26 01:32:20;;;;;;;1.95;1.58;;;;;;;;;;1019833;29;20042;-74
2023/09/26 01:32:51;;;;;;;1.52;0.45;;;;;;;;;;1021685;29;20051;-74
2023/09/26 01:33:21;;;;;;;0.85;0.63;;;;;;;;;;1020960;29;20050;-75
2023/09/26 01:33:52;;;;;;;4.25;2.70;;;;;;;;;;1021086;29;20051;-74
2023/09/26 01:34:22;;;;;;;4.72;3.22;;;;;;;;;;1020885;29;20163;-74
2023/09/26 01:34:53;;;;;;;0.70;0.70;;;;;;;;;;1017708;29;20126;-74
2023/09/26 01:35:25;;;;;;;9.13;1.10;;;;;;;;;;1018432;29;20584;-74
2023/09/26 01:35:55;;;;;;;2.17;1.08;;;;;;;;;;1017793;29;20007;-74
2023/09/26 01:36:27;;;;;;;16.55;4.13;;;;;;;;;;1017563;29;20482;-75
2023/09/26 01:36:57;;;;;;;8.18;2.85;;;;;;;;;;1018003;29;20031;-74
2023/09/26 01:37:27;;;;;;;11.43;2.13;;;;;;;;;;1016442;29;20111;-74
2023/09/26 01:37:59;;;;;;;2.40;1.80;;;;;;;;;;1017340;29;20051;-74
2023/09/26 01:38:29;;;;;;;3.22;2.45;;;;;;;;;;1016834;29;20019;-74
2023/09/26 01:39:00;;;;;;;1.33;1.23;;;;;;;;;;1017157;29;20044;-74
2023/09/26 01:39:30;;;;;;;6.18;2.60;;;;;;;;;;1016716;29;20072;-74
2023/09/26 01:40:02;;;;;;;5.18;3.58;;;;;;;;;;1018619;29;20028;-73
2023/09/26 01:40:32;;;;;;;2.55;2.35;;;;;;;;;;1019115;29;20040;-73
2023/09/26 01:41:03;;;;;;;2.78;1.63;;;;;;;;;;1017115;29;20436;-74
2023/09/26 01:41:33;;;;;;;4.75;2.30;;;;;;;;;;1017653;29;20036;-73
2023/09/26 01:42:04;;;;;;;0.85;0.80;;;;;;;;;;1017782;29;20034;-73
2023/09/26 01:42:34;;;;;;;4.70;2.83;;;;;;;;;;1017674;29;20028;-74
2023/09/26 01:43:05;;;;;;;2.88;1.88;;;;;;;;;;1016610;29;20103;-74
2023/09/26 01:43:35;;;;;;;0.77;0.77;;;;;;;;;;1018267;29;20036;-74
2023/09/26 01:44:06;;;;;;;2.65;2.22;;;;;;;;;;1017199;29;20051;-74
2023/09/26 01:44:37;;;;;;;3.75;1.65;;;;;;;;;;1020914;29;20032;-74
2023/09/26 01:45:09;;;;;;;4.32;2.65;;;;;;;;;;1021862;29;20027;-74
2023/09/26 01:45:39;;;;;;;1.67;1.45;;;;;;;;;;1022004;29;20024;-74
2023/09/26 01:46:10;;;;;;;4.47;1.88;;;;;;;;;;1020958;29;20027;-74
2023/09/26 01:46:40;;;;;;;1.50;1.38;;;;;;;;;;1017653;29;20055;-73
2023/09/26 01:47:14;;;;;;;1.90;1.63;;;;;;;;;;1016278;29;20065;-73
2023/09/26 01:47:45;;;;;;;5.57;4.32;;;;;;;;;;1017762;29;20498;-74
2023/09/26 01:48:15;;;;;;;0.85;0.85;;;;;;;;;;1017154;29;20019;-73
2023/09/26 01:48:47;;;;;;;4.65;1.75;;;;;;;;;;1017553;29;20031;-74
2023/09/26 01:49:19;;;;;;;2.22;2.05;;;;;;;;;;1018908;29;20467;-74
2023/09/26 01:49:51;;;;;;;8.18;2.33;;;;;;;;;;1021406;29;20118;-74
2023/09/26 01:50:21;;;;;;;4.88;2.28;;;;;;;;;;1021254;29;20081;-74
2023/09/26 01:50:53;;;;;;;2.33;2.13;;;;;;;;;;1021011;29;20471;-74
2023/09/26 01:51:24;;;;;;;3.70;1.00;;;;;;;;;;1018676;29;20040;-74
2023/09/26 01:51:54;;;;;;;2.13;1.92;;;;;;;;;;1018196;29;20519;-73
2023/09/26 01:52:25;;;;;;;9.18;3.47;;;;;;;;;;1017264;29;20510;-73
2023/09/26 01:52:55;;;;;;;4.75;2.50;;;;;;;;;;1017083;29;20036;-73
2023/09/26 01:53:26;;;;;;;0.90;0.90;;;;;;;;;;1021454;29;20038;-74
2023/09/26 01:53:57;;;;;;;2.38;1.75;;;;;;;;;;1022591;29;20061;-74
2023/09/26 01:54:27;;;;;;;10.77;3.42;;;;;;;;;;1021458;29;20027;-72
2023/09/26 01:54:58;;;;;;;9.75;3.67;;;;;;;;;;1017580;29;20504;-73
2023/09/26 01:55:28;;;;;;;6.47;4.10;;;;;;;;;;1019153;29;20050;-73
2023/09/26 01:55:59;;;;;;;1.75;1.55;;;;;;;;;;1018417;29;20051;-72
2023/09/26 01:56:31;;;;;;;2.22;2.08;;;;;;;;;;1018448;29;20023;-73
2023/09/26 01:57:01;;;;;;;15.25;3.70;;;;;;;;;;1017692;29;20020;-74
2023/09/26 01:57:32;;;;;;;1.23;1.13;;;;;;;;;;1016836;29;20481;-74
2023/09/26 01:58:03;;;;;;;0.68;0.68;;;;;;;;;;1017622;29;20102;-73
2023/09/26 01:58:34;;;;;;;6.38;5.75;;;;;;;;;;1012926;29;20584;-74
2023/09/26 01:59:04;;;;;;;7.82;4.38;;;;;;;;;;1016344;29;20027;-74
2023/09/26 01:59:35;;;;;;;13.18;3.75;;;;;;;;;;1021906;28;20085;-74
2023/09/26 02:00:14;;;;;;;19.40;2.28;;;;;;;;;;1017119;29;20039;-75
2023/09/26 02:00:45;;;;;;;3.95;1.85;;;;;;;;;;1017080;29;20032;-74
2023/09/26 02:01:17;;;;;;;17.98;4.15;;;;;;;;;;1016295;29;20122;-74
2023/09/26 02:01:47;;;;;;;11.07;4.18;;;;;;;;;;1012912;29;20032;-74
2023/09/26 02:02:18;;;;;;;2.15;1.73;;;;;;;;;;1012132;29;20040;-74
2023/09/26 02:02:50;;;;;;;2.22;2.03;;;;;;;;;;1012759;29;20663;-74
2023/09/26 02:03:21;;;;;;;2.30;1.63;;;;;;;;;;1014673;29;20135;-74
2023/09/26 02:03:52;;;;;;;4.68;2.30;;;;;;;;;;1018801;29;20164;-74
2023/09/26 02:04:22;;;;;;;3.15;2.08;;;;;;;;;;1012314;29;20100;-73
2023/09/26 02:04:53;;;;;;;3.17;1.95;;;;;;;;;;1017807;29;20036;-74
2023/09/26 02:05:23;;;;;;;2.75;2.55;;;;;;;;;;1017498;29;20118;-73
2023/09/26 02:05:56;;;;;;;2.05;1.85;;;;;;;;;;1017847;29;20123;-73
2023/09/26 02:06:26;;;;;;;11.40;4.05;;;;;;;;;;1018560;29;20492;-74
2023/09/26 02:06:57;;;;;;;4.25;3.20;;;;;;;;;;1017501;29;20028;-73
2023/09/26 02:07:27;;;;;;;4.13;3.25;;;;;;;;;;1016473;29;20027;-73
2023/09/26 02:07:58;;;;;;;8.05;4.55;;;;;;;;;;1017016;29;20042;-73
2023/09/26 02:08:29;;;;;;;6.97;3.70;;;;;;;;;;1017633;29;20035;-73
2023/09/26 02:08:59;;;;;;;11.18;4.65;;;;;;;;;;1017321;29;20374;-75
2023/09/26 02:09:29;;;;;;;2.83;1.80;;;;;;;;;;1016590;29;20115;-73
2023/09/26 02:10:00;;;;;;;4.82;4.03;;;;;;;;;;1017446;29;20028;-74
2023/09/26 02:10:31;;;;;;;4.72;4.15;;;;;;;;;;1017201;29;20066;-74
2023/09/26 02:11:02;;;;;;;7.32;3.20;;;;;;;;;;1016270;29;20039;-73
2023/09/26 02:11:32;;;;;;;4.88;3.55;;;;;;;;;;1015693;29;20024;-73
2023/09/26 02:12:07;;;;;;;3.78;3.33;;;;;;;;;;1017012;29;20035;-73
2023/09/26 02:12:38;;;;;;;6.47;1.70;;;;;;;;;;1016624;29;20031;-73
2023/09/26 02:13:09;;;;;;;2.70;2.05;;;;;;;;;;1015960;29;20044;-74
2023/09/26 02:13:39;;;;;;;1.45;1.35;;;;;;;;;;1014439;29;20035;-74
2023/09/26 02:14:09;;;;;;;2.13;2.03;;;;;;;;;;1014896;29;20034;-74
2023/09/26 02:14:40;;;;;;;1.98;1.88;;;;;;;;;;1015769;29;20035;-74
2023/09/26 02:15:12;;;;;;;0.63;0.63;;;;;;;;;;1016871;29;20537;-73
2023/09/26 02:15:42;;;;;;;4.47;2.15;;;;;;;;;;1014529;29;20043;-74
2023/09/26 02:16:13;;;;;;;1.30;1.02;;;;;;;;;;1013742;29;20023;-74
2023/09/26 02:16:44;;;;;;;2.75;1.65;;;;;;;;;;1018256;29;20032;-74
2023/09/26 02:17:15;;;;;;;4.18;2.17;;;;;;;;;;1018585;29;20032;-74
2023/09/26 02:17:46;;;;;;;2.58;2.38;;;;;;;;;;1020745;29;20046;-74
2023/09/26 02:18:16;;;;;;;4.82;4.32;;;;;;;;;;1019584;29;20110;-74
2023/09/26 02:18:47;;;;;;;2.63;2.42;;;;;;;;;;1020473;29;20023;-74
2023/09/26 02:19:17;;;;;;;7.50;4.70;;;;;;;;;;1017471;29;20433;-74
2023/09/26 02:19:48;;;;;;;8.15;2.50;;;;;;;;;;1018930;29;20042;-74
2023/09/26 02:20:19;;;;;;;8.27;3.38;;;;;;;;;;1012917;29;20022;-74
2023/09/26 02:20:51;;;;;;;6.03;2.30;;;;;;;;;;1008588;29;20044;-74
2023/09/26 02:21:22;;;;;;;2.88;2.63;;;;;;;;;;1009344;29;20052;-74
2023/09/26 02:21:52;;;;;;;11.50;4.60;;;;;;;;;;1013050;29;20067;-73
2023/09/26 02:22:23;;;;;;;3.85;3.17;;;;;;;;;;1016302;29;20063;-74
2023/09/26 02:22:53;;;;;;;3.30;2.65;;;;;;;;;;1020171;29;20027;-73
2023/09/26 02:23:24;;;;;;;7.25;1.80;;;;;;;;;;1017322;29;20110;-73
2023/09/26 02:23:55;;;;;;;2.25;2.05;;;;;;;;;;1020542;29;20031;-73
2023/09/26 02:24:25;;;;;;;2.20;1.45;;;;;;;;;;1020367;29;20078;-73
2023/09/26 02:24:57;;;;;;;10.20;3.28;;;;;;;;;;1017161;29;20480;-73
2023/09/26 02:25:27;;;;;;;0.73;0.73;;;;;;;;;;1013622;29;20074;-74
2023/09/26 02:25:58;;;;;;;2.50;1.88;;;;;;;;;;1012734;29;20089;-73
2023/09/26 02:26:28;;;;;;;2.08;1.88;;;;;;;;;;1013163;29;20028;-74
2023/09/26 02:26:59;;;;;;;8.57;3.95;;;;;;;;;;1013065;29;20389;-74
2023/09/26 02:27:30;;;;;;;3.03;2.67;;;;;;;;;;1015295;29;20027;-74
2023/09/26 02:28:00;;;;;;;6.03;3.75;;;;;;;;;;1017870;29;20019;-73
2023/09/26 02:28:31;;;;;;;4.63;4.15;;;;;;;;;;1017187;29;20031;-74
2023/09/26 02:29:01;;;;;;;2.90;2.08;;;;;;;;;;1018569;29;20024;-74
2023/09/26 02:29:32;;;;;;;3.88;3.40;;;;;;;;;;1016785;29;20027;-73
2023/09/26 02:30:04;;;;;;;8.85;3.45;;;;;;;;;;1015471;29;20065;-74
2023/09/26 02:30:34;;;;;;;13.25;5.70;;;;;;;;;;1017203;29;20032;-74
2023/09/26 02:31:05;;;;;;;4.85;1.60;;;;;;;;;;1013037;29;20028;-73
2023/09/26 02:31:35;;;;;;;1.23;1.05;;;;;;;;;;1017967;29;20102;-74
2023/09/26 02:32:06;;;;;;;9.88;2.35;;;;;;;;;;1012468;29;20039;-75
2023/09/26 02:32:36;;;;;;;5.40;2.95;;;;;;;;;;1012336;29;20039;-71
2023/09/26 02:33:07;;;;;;;2.65;1.58;;;;;;;;;;1016238;29;20038;-74
2023/09/26 02:33:37;;;;;;;3.55;2.65;;;;;;;;;;1016452;29;20545;-75
2023/09/26 02:34:08;;;;;;;6.55;2.80;;;;;;;;;;1019867;29;20071;-74
2023/09/26 02:34:38;;;;;;;1.88;1.70;;;;;;;;;;1015516;29;20027;-74
2023/09/26 02:35:11;;;;;;;2.95;2.35;;;;;;;;;;1016177;29;20024;-74
2023/09/26 02:35:42;;;;;;;4.32;3.08;;;;;;;;;;1018008;29;20480;-75
2023/09/26 02:36:12;;;;;;;1.55;1.45;;;;;;;;;;1018693;29;20031;-74
2023/09/26 02:36:42;;;;;;;2.58;2.38;;;;;;;;;;1017981;29;20074;-74
2023/09/26 02:37:13;;;;;;;7.88;4.95;;;;;;;;;;1019518;29;20027;-75
2023/09/26 02:37:44;;;;;;;5.07;4.57;;;;;;;;;;1017929;29;20503;-73
2023/09/26 02:38:14;;;;;;;5.85;2.83;;;;;;;;;;1017928;29;20535;-73
2023/09/26 02:38:45;;;;;;;3.08;2.30;;;;;;;;;;1014050;29;20091;-75
2023/09/26 02:39:17;;;;;;;4.30;1.45;;;;;;;;;;1013563;29;20067;-73
2023/09/26 02:39:47;;;;;;;4.45;3.97;;;;;;;;;;1012260;29;20612;-73
2023/09/26 02:40:18;;;;;;;10.60;1.65;;;;;;;;;;1013157;29;20020;-73
2023/09/26 02:40:49;;;;;;;2.25;2.00;;;;;;;;;;1016398;29;20031;-73
2023/09/26 02:41:19;;;;;;;4.70;2.28;;;;;;;;;;1015908;29;20031;-73
2023/09/26 02:41:50;;;;;;;7.63;4.38;;;;;;;;;;1018232;29;20042;-74
2023/09/26 02:42:21;;;;;;;6.78;4.40;;;;;;;;;;1012004;29;20075;-73
2023/09/26 02:42:52;;;;;;;2.72;2.25;;;;;;;;;;1013512;29;20591;-73
2023/09/26 02:43:22;;;;;;;6.85;3.97;;;;;;;;;;1015902;29;20456;-73
2023/09/26 02:43:55;;;;;;;7.45;4.35;;;;;;;;;;1015000;29;20050;-74
2023/09/26 02:44:26;;;;;;;15.52;3.28;;;;;;;;;;1018460;29;20524;-73
2023/09/26 02:44:56;;;;;;;8.23;4.53;;;;;;;;;;1015002;29;20111;-73
2023/09/26 02:45:28;;;;;;;5.13;3.42;;;;;;;;;;1015599;29;20020;-73
2023/09/26 02:52:05;;;;;;;;;;;;;;;;;;1170581;23;19927;-73
2023/09/26 02:52:40;;;;;;;13.25;2.42;;;;;;;;;;1016555;29;19922;-72
2023/09/26 02:53:10;;;;;;;5.88;3.88;;;;;;;;;;1020575;29;20445;-73
2023/09/26 02:53:41;;;;;;;12.32;0.80;;;;;;;;;;1021562;29;20034;-72
2023/09/26 02:54:11;;;;;;;2.35;1.63;;;;;;;;;;1020770;29;20055;-73
2023/09/26 02:54:42;;;;;;;1.42;1.33;;;;;;;;;;1022048;29;20106;-73
2023/09/26 02:55:13;;;;;;;5.93;2.83;;;;;;;;;;1022315;29;20452;-73
2023/09/26 02:55:43;;;;;;;1.63;1.48;;;;;;;;;;1019829;29;20058;-72
2023/09/26 02:56:14;;;;;;;1.25;1.20;;;;;;;;;;1016471;29;20449;-73
2023/09/26 02:56:45;;;;;;;4.43;4.03;;;;;;;;;;1020460;29;20031;-73
2023/09/26 02:57:17;;;;;;;2.25;1.42;;;;;;;;;;1019546;29;20065;-73
2023/09/26 02:57:50;;;;;;;3.58;2.28;;;;;;;;;;1022766;29;20031;-74
2023/09/26 02:58:22;;;;;;;0.95;0.93;;;;;;;;;;1021233;29;20031;-75
2023/09/26 02:58:53;;;;;;;3.85;1.38;;;;;;;;;;1022024;29;20007;-74
2023/09/26 02:59:24;;;;;;;0.88;0.85;;;;;;;;;;1017125;29;20083;-74
2023/09/26 02:59:54;;;;;;;0.85;0.82;;;;;;;;;;1012761;29;20035;-74
2023/09/26 03:00:25;;;;;;;4.32;2.28;;;;;;;;;;1010564;29;20392;-74
2023/09/26 03:00:56;;;;;;;4.53;2.40;;;;;;;;;;1009365;29;20513;-74
2023/09/26 03:01:27;;;;;;;3.00;1.83;;;;;;;;;;1010774;29;20124;-73
2023/09/26 03:01:57;;;;;;;1.75;1.65;;;;;;;;;;1013397;29;20039;-74
2023/09/26 03:02:31;;;;;;;3.63;2.08;;;;;;;;;;1009963;29;20044;-73
2023/09/26 03:03:01;;;;;;;3.05;2.53;;;;;;;;;;1012729;29;20040;-74
2023/09/26 03:03:32;;;;;;;1.60;1.48;;;;;;;;;;1016528;29;20433;-74
2023/09/26 03:04:02;;;;;;;4.40;1.83;;;;;;;;;;1015098;29;20054;-74
2023/09/26 03:04:33;;;;;;;4.53;2.72;;;;;;;;;;1021711;29;20114;-73
2023/09/26 03:05:04;;;;;;;1.83;1.65;;;;;;;;;;1020742;29;20769;-74
2023/09/26 03:05:34;;;;;;;4.60;3.38;;;;;;;;;;1021249;28;20027;-74
2023/09/26 03:06:08;;;;;;;2.47;2.33;;;;;;;;;;1016424;29;20040;-74
2023/09/26 03:06:39;;;;;;;4.32;1.50;;;;;;;;;;1015225;29;20028;-74
2023/09/26 03:07:09;;;;;;;3.53;2.28;;;;;;;;;;1010031;29;20042;-73
2023/09/26 03:07:40;;;;;;;1.42;1.33;;;;;;;;;;1006218;29;20057;-74
2023/09/26 03:08:11;;;;;;;2.35;2.15;;;;;;;;;;1007977;29;20040;-74
2023/09/26 03:08:42;;;;;;;10.02;2.67;;;;;;;;;;1016072;29;20933;-74
2023/09/26 03:09:15;;;;;;;2.35;2.15;;;;;;;;;;1010007;29;20571;-74
2023/09/26 03:09:46;;;;;;;3.45;1.33;;;;;;;;;;1016971;29;20062;-74
2023/09/26 03:10:17;;;;;;;3.40;3.15;;;;;;;;;;1016088;29;20039;-74
2023/09/26 03:10:48;;;;;;;2.65;2.00;;;;;;;;;;1019062;28;20030;-74
2023/09/26 03:11:19;;;;;;;2.20;1.88;;;;;;;;;;1023899;28;20427;-74
2023/09/26 03:11:50;;;;;;;4.15;3.05;;;;;;;;;;1013326;29;20404;-73